sensor_id;sensor_type;location;lat;lon;timestamp;P1;durP1;ratioP1;P2;durP2;ratioP2
3149;SDS011;32503;47.748;8.960;2022-07-23T00:00:17;13.57;;;12.57;;
3149;SDS011;32503;47.748;8.960;2022-07-23T00:02:45;14.50;;;13.33;;
3149;SDS011;32503;47.748;8.960;2022-07-23T00:05:12;13.30;;;12.30;;
3149;SDS011;32503;47.748;8.960;2022-07-23T00:07:39;12.70;;;11.80;;
3149;SDS011;32503;47.748;8.960;2022-07-23T00:10:08;13.60;;;12.43;;
3149;SDS011;32503;47.748;8.960;2022-07-23T00:12:36;14.43;;;13.07;;
3149;SDS011;32503;47.748;8.960;2022-07-23T00:15:04;13.87;;;12.77;;
3149;SDS011;32503;47.748;8.960;2022-07-23T00:17:33;13.80;;;12.67;;
3149;SDS011;32503;47.748;8.960;2022-07-23T00:20:00;12.60;;;11.77;;
3149;SDS011;32503;47.748;8.960;2022-07-23T00:22:28;14.60;;;13.27;;
3149;SDS011;32503;47.748;8.960;2022-07-23T00:24:55;14.33;;;13.07;;
3149;SDS011;32503;47.748;8.960;2022-07-23T00:27:24;13.97;;;12.87;;
3149;SDS011;32503;47.748;8.960;2022-07-23T00:29:51;15.53;;;14.00;;
3149;SDS011;32503;47.748;8.960;2022-07-23T00:32:18;14.37;;;13.27;;
3149;SDS011;32503;47.748;8.960;2022-07-23T00:34:45;14.60;;;13.40;;
3149;SDS011;32503;47.748;8.960;2022-07-23T00:37:12;14.07;;;12.80;;
3149;SDS011;32503;47.748;8.960;2022-07-23T00:39:39;14.43;;;13.13;;
3149;SDS011;32503;47.748;8.960;2022-07-23T00:42:06;15.87;;;14.23;;
3149;SDS011;32503;47.748;8.960;2022-07-23T00:44:35;14.83;;;13.60;;
3149;SDS011;32503;47.748;8.960;2022-07-23T00:47:02;14.40;;;13.00;;
3149;SDS011;32503;47.748;8.960;2022-07-23T00:49:30;15.47;;;13.67;;
3149;SDS011;32503;47.748;8.960;2022-07-23T00:51:58;15.97;;;14.33;;
3149;SDS011;32503;47.748;8.960;2022-07-23T00:54:28;14.60;;;13.20;;
3149;SDS011;32503;47.748;8.960;2022-07-23T00:56:55;16.93;;;15.23;;
3149;SDS011;32503;47.748;8.960;2022-07-23T00:59:22;14.03;;;12.93;;
3149;SDS011;32503;47.748;8.960;2022-07-23T01:01:51;18.33;;;14.57;;
3149;SDS011;32503;47.748;8.960;2022-07-23T01:04:18;20.70;;;14.60;;
3149;SDS011;32503;47.748;8.960;2022-07-23T01:06:45;16.43;;;15.13;;
3149;SDS011;32503;47.748;8.960;2022-07-23T01:09:12;16.00;;;14.40;;
3149;SDS011;32503;47.748;8.960;2022-07-23T01:11:40;16.90;;;15.47;;
3149;SDS011;32503;47.748;8.960;2022-07-23T01:14:08;14.83;;;13.40;;
3149;SDS011;32503;47.748;8.960;2022-07-23T01:16:37;16.40;;;14.57;;
3149;SDS011;32503;47.748;8.960;2022-07-23T01:19:06;13.97;;;12.87;;
3149;SDS011;32503;47.748;8.960;2022-07-23T01:21:35;13.93;;;12.83;;
3149;SDS011;32503;47.748;8.960;2022-07-23T01:24:05;14.20;;;13.10;;
3149;SDS011;32503;47.748;8.960;2022-07-23T01:26:33;13.83;;;12.10;;
3149;SDS011;32503;47.748;8.960;2022-07-23T01:29:00;13.80;;;12.30;;
3149;SDS011;32503;47.748;8.960;2022-07-23T01:31:28;13.97;;;12.60;;
3149;SDS011;32503;47.748;8.960;2022-07-23T01:33:55;13.57;;;12.37;;
3149;SDS011;32503;47.748;8.960;2022-07-23T01:36:23;13.40;;;12.30;;
3149;SDS011;32503;47.748;8.960;2022-07-23T01:38:50;14.90;;;13.70;;
3149;SDS011;32503;47.748;8.960;2022-07-23T01:41:19;12.90;;;11.67;;
3149;SDS011;32503;47.748;8.960;2022-07-23T01:43:46;12.20;;;11.30;;
3149;SDS011;32503;47.748;8.960;2022-07-23T01:46:13;13.10;;;12.00;;
3149;SDS011;32503;47.748;8.960;2022-07-23T01:48:40;12.33;;;11.30;;
3149;SDS011;32503;47.748;8.960;2022-07-23T01:51:08;12.50;;;11.47;;
3149;SDS011;32503;47.748;8.960;2022-07-23T01:53:35;12.03;;;11.03;;
3149;SDS011;32503;47.748;8.960;2022-07-23T01:56:02;12.63;;;11.57;;
3149;SDS011;32503;47.748;8.960;2022-07-23T01:58:32;12.30;;;11.23;;
3149;SDS011;32503;47.748;8.960;2022-07-23T02:00:59;12.23;;;11.23;;
3149;SDS011;32503;47.748;8.960;2022-07-23T02:03:26;12.03;;;11.07;;
3149;SDS011;32503;47.748;8.960;2022-07-23T02:05:53;12.43;;;11.50;;
3149;SDS011;32503;47.748;8.960;2022-07-23T02:08:20;11.10;;;10.20;;
3149;SDS011;32503;47.748;8.960;2022-07-23T02:10:47;11.80;;;10.87;;
3149;SDS011;32503;47.748;8.960;2022-07-23T02:13:16;12.20;;;11.10;;
3149;SDS011;32503;47.748;8.960;2022-07-23T02:15:45;13.00;;;11.20;;
3149;SDS011;32503;47.748;8.960;2022-07-23T02:18:12;10.77;;;9.97;;
3149;SDS011;32503;47.748;8.960;2022-07-23T02:20:40;11.00;;;10.30;;
3149;SDS011;32503;47.748;8.960;2022-07-23T02:23:07;10.57;;;9.80;;
3149;SDS011;32503;47.748;8.960;2022-07-23T02:25:34;12.00;;;11.10;;
3149;SDS011;32503;47.748;8.960;2022-07-23T02:28:01;13.40;;;12.10;;
3149;SDS011;32503;47.748;8.960;2022-07-23T02:30:29;11.73;;;10.63;;
3149;SDS011;32503;47.748;8.960;2022-07-23T02:32:58;12.40;;;11.43;;
3149;SDS011;32503;47.748;8.960;2022-07-23T02:35:25;11.83;;;10.87;;
3149;SDS011;32503;47.748;8.960;2022-07-23T02:37:52;11.20;;;10.40;;
3149;SDS011;32503;47.748;8.960;2022-07-23T02:40:19;12.93;;;11.83;;
3149;SDS011;32503;47.748;8.960;2022-07-23T02:42:46;11.00;;;10.23;;
3149;SDS011;32503;47.748;8.960;2022-07-23T02:45:13;13.30;;;10.43;;
3149;SDS011;32503;47.748;8.960;2022-07-23T02:47:40;11.17;;;10.37;;
3149;SDS011;32503;47.748;8.960;2022-07-23T02:50:09;12.40;;;11.40;;
3149;SDS011;32503;47.748;8.960;2022-07-23T02:52:37;10.53;;;9.83;;
3149;SDS011;32503;47.748;8.960;2022-07-23T02:55:05;10.57;;;9.67;;
3149;SDS011;32503;47.748;8.960;2022-07-23T02:57:33;11.50;;;10.57;;
3149;SDS011;32503;47.748;8.960;2022-07-23T03:00:00;12.00;;;11.00;;
3149;SDS011;32503;47.748;8.960;2022-07-23T03:02:27;10.93;;;10.23;;
3149;SDS011;32503;47.748;8.960;2022-07-23T03:04:54;11.70;;;10.80;;
3149;SDS011;32503;47.748;8.960;2022-07-23T03:07:22;11.80;;;10.87;;
3149;SDS011;32503;47.748;8.960;2022-07-23T03:09:49;13.70;;;12.60;;
3149;SDS011;32503;47.748;8.960;2022-07-23T03:12:16;11.47;;;10.67;;
3149;SDS011;32503;47.748;8.960;2022-07-23T03:14:43;11.37;;;10.47;;
3149;SDS011;32503;47.748;8.960;2022-07-23T03:17:10;13.00;;;11.90;;
3149;SDS011;32503;47.748;8.960;2022-07-23T03:19:39;11.87;;;10.97;;
3149;SDS011;32503;47.748;8.960;2022-07-23T03:22:06;11.50;;;10.43;;
3149;SDS011;32503;47.748;8.960;2022-07-23T03:24:35;12.83;;;11.80;;
3149;SDS011;32503;47.748;8.960;2022-07-23T03:27:20;11.87;;;10.97;;
3149;SDS011;32503;47.748;8.960;2022-07-23T03:29:49;12.67;;;11.67;;
3149;SDS011;32503;47.748;8.960;2022-07-23T03:32:17;11.97;;;10.77;;
3149;SDS011;32503;47.748;8.960;2022-07-23T03:34:49;13.07;;;11.90;;
3149;SDS011;32503;47.748;8.960;2022-07-23T03:37:18;12.10;;;11.17;;
3149;SDS011;32503;47.748;8.960;2022-07-23T03:39:47;12.13;;;11.13;;
3149;SDS011;32503;47.748;8.960;2022-07-23T03:42:14;12.23;;;11.13;;
3149;SDS011;32503;47.748;8.960;2022-07-23T03:44:41;12.47;;;11.43;;
3149;SDS011;32503;47.748;8.960;2022-07-23T03:47:08;11.90;;;11.00;;
3149;SDS011;32503;47.748;8.960;2022-07-23T03:49:35;12.40;;;11.47;;
3149;SDS011;32503;47.748;8.960;2022-07-23T03:52:02;12.23;;;11.33;;
3149;SDS011;32503;47.748;8.960;2022-07-23T03:54:30;14.07;;;12.80;;
3149;SDS011;32503;47.748;8.960;2022-07-23T03:56:58;14.03;;;12.80;;
3149;SDS011;32503;47.748;8.960;2022-07-23T03:59:25;13.67;;;12.57;;
3149;SDS011;32503;47.748;8.960;2022-07-23T04:01:53;14.70;;;13.33;;
3149;SDS011;32503;47.748;8.960;2022-07-23T04:04:20;14.23;;;13.13;;
3149;SDS011;32503;47.748;8.960;2022-07-23T04:06:47;12.53;;;11.63;;
3149;SDS011;32503;47.748;8.960;2022-07-23T04:09:14;13.57;;;12.47;;
3149;SDS011;32503;47.748;8.960;2022-07-23T04:11:41;15.17;;;13.97;;
3149;SDS011;32503;47.748;8.960;2022-07-23T04:14:10;13.87;;;12.67;;
3149;SDS011;32503;47.748;8.960;2022-07-23T04:16:37;13.40;;;12.17;;
3149;SDS011;32503;47.748;8.960;2022-07-23T04:19:04;13.87;;;12.67;;
3149;SDS011;32503;47.748;8.960;2022-07-23T04:21:31;13.93;;;12.80;;
3149;SDS011;32503;47.748;8.960;2022-07-23T04:23:58;15.43;;;13.47;;
3149;SDS011;32503;47.748;8.960;2022-07-23T04:26:25;13.93;;;12.93;;
3149;SDS011;32503;47.748;8.960;2022-07-23T04:28:52;13.93;;;12.77;;
3149;SDS011;32503;47.748;8.960;2022-07-23T04:31:21;15.60;;;14.20;;
3149;SDS011;32503;47.748;8.960;2022-07-23T04:33:48;16.03;;;14.60;;
3149;SDS011;32503;47.748;8.960;2022-07-23T04:36:15;14.30;;;13.10;;
3149;SDS011;32503;47.748;8.960;2022-07-23T04:38:42;13.83;;;12.60;;
3149;SDS011;32503;47.748;8.960;2022-07-23T04:41:09;13.60;;;12.57;;
3149;SDS011;32503;47.748;8.960;2022-07-23T04:43:36;14.27;;;13.17;;
3149;SDS011;32503;47.748;8.960;2022-07-23T04:46:03;14.50;;;13.00;;
3149;SDS011;32503;47.748;8.960;2022-07-23T04:48:32;14.30;;;13.00;;
3149;SDS011;32503;47.748;8.960;2022-07-23T04:50:59;15.57;;;14.00;;
3149;SDS011;32503;47.748;8.960;2022-07-23T04:53:26;14.23;;;13.10;;
3149;SDS011;32503;47.748;8.960;2022-07-23T04:55:53;13.87;;;12.67;;
3149;SDS011;32503;47.748;8.960;2022-07-23T04:58:21;16.30;;;12.93;;
3149;SDS011;32503;47.748;8.960;2022-07-23T05:00:48;14.00;;;12.80;;
3149;SDS011;32503;47.748;8.960;2022-07-23T05:03:15;13.90;;;12.60;;
3149;SDS011;32503;47.748;8.960;2022-07-23T05:05:44;12.47;;;11.37;;
3149;SDS011;32503;47.748;8.960;2022-07-23T05:08:11;13.03;;;12.03;;
3149;SDS011;32503;47.748;8.960;2022-07-23T05:10:38;16.13;;;14.50;;
3149;SDS011;32503;47.748;8.960;2022-07-23T05:13:05;14.00;;;12.80;;
3149;SDS011;32503;47.748;8.960;2022-07-23T05:15:32;13.50;;;12.40;;
3149;SDS011;32503;47.748;8.960;2022-07-23T05:18:00;15.10;;;13.83;;
3149;SDS011;32503;47.748;8.960;2022-07-23T05:20:27;17.43;;;15.77;;
3149;SDS011;32503;47.748;8.960;2022-07-23T05:22:55;15.20;;;13.77;;
3149;SDS011;32503;47.748;8.960;2022-07-23T05:25:22;16.70;;;15.10;;
3149;SDS011;32503;47.748;8.960;2022-07-23T05:27:50;16.43;;;14.77;;
3149;SDS011;32503;47.748;8.960;2022-07-23T05:30:17;15.60;;;14.30;;
3149;SDS011;32503;47.748;8.960;2022-07-23T05:32:44;16.43;;;14.77;;
3149;SDS011;32503;47.748;8.960;2022-07-23T05:35:11;15.57;;;14.27;;
3149;SDS011;32503;47.748;8.960;2022-07-23T05:37:38;15.97;;;14.30;;
3149;SDS011;32503;47.748;8.960;2022-07-23T05:40:08;15.60;;;14.20;;
3149;SDS011;32503;47.748;8.960;2022-07-23T05:42:37;15.20;;;13.80;;
3149;SDS011;32503;47.748;8.960;2022-07-23T05:45:06;14.87;;;13.53;;
3149;SDS011;32503;47.748;8.960;2022-07-23T05:47:41;15.93;;;14.43;;
3149;SDS011;32503;47.748;8.960;2022-07-23T05:50:10;15.07;;;13.37;;
3149;SDS011;32503;47.748;8.960;2022-07-23T05:52:38;15.70;;;14.37;;
3149;SDS011;32503;47.748;8.960;2022-07-23T05:55:07;17.40;;;14.93;;
3149;SDS011;32503;47.748;8.960;2022-07-23T05:57:37;15.23;;;13.93;;
3149;SDS011;32503;47.748;8.960;2022-07-23T06:00:05;16.50;;;14.93;;
3149;SDS011;32503;47.748;8.960;2022-07-23T06:02:35;15.97;;;14.60;;
3149;SDS011;32503;47.748;8.960;2022-07-23T06:05:04;13.90;;;12.63;;
3149;SDS011;32503;47.748;8.960;2022-07-23T06:07:33;16.33;;;14.83;;
3149;SDS011;32503;47.748;8.960;2022-07-23T06:10:01;13.90;;;12.70;;
3149;SDS011;32503;47.748;8.960;2022-07-23T06:12:30;15.30;;;13.73;;
3149;SDS011;32503;47.748;8.960;2022-07-23T06:14:57;15.83;;;14.13;;
3149;SDS011;32503;47.748;8.960;2022-07-23T06:17:25;12.90;;;11.90;;
3149;SDS011;32503;47.748;8.960;2022-07-23T06:19:52;13.87;;;12.57;;
3149;SDS011;32503;47.748;8.960;2022-07-23T06:22:20;13.47;;;12.43;;
3149;SDS011;32503;47.748;8.960;2022-07-23T06:24:48;14.63;;;13.30;;
3149;SDS011;32503;47.748;8.960;2022-07-23T06:27:16;13.30;;;12.20;;
3149;SDS011;32503;47.748;8.960;2022-07-23T06:29:45;13.90;;;12.57;;
3149;SDS011;32503;47.748;8.960;2022-07-23T06:32:12;13.17;;;12.27;;
3149;SDS011;32503;47.748;8.960;2022-07-23T06:34:39;14.47;;;13.23;;
3149;SDS011;32503;47.748;8.960;2022-07-23T06:37:06;13.50;;;12.40;;
3149;SDS011;32503;47.748;8.960;2022-07-23T06:39:33;14.77;;;13.67;;
3149;SDS011;32503;47.748;8.960;2022-07-23T06:42:00;12.67;;;11.80;;
3149;SDS011;32503;47.748;8.960;2022-07-23T06:44:27;13.80;;;12.60;;
3149;SDS011;32503;47.748;8.960;2022-07-23T06:46:56;14.27;;;13.17;;
3149;SDS011;32503;47.748;8.960;2022-07-23T06:49:23;12.53;;;11.57;;
3149;SDS011;32503;47.748;8.960;2022-07-23T06:51:50;13.43;;;12.30;;
3149;SDS011;32503;47.748;8.960;2022-07-23T06:54:17;12.63;;;11.73;;
3149;SDS011;32503;47.748;8.960;2022-07-23T06:56:44;13.87;;;12.53;;
3149;SDS011;32503;47.748;8.960;2022-07-23T06:59:11;12.40;;;11.50;;
3149;SDS011;32503;47.748;8.960;2022-07-23T07:01:38;14.07;;;12.70;;
3149;SDS011;32503;47.748;8.960;2022-07-23T07:04:07;13.90;;;12.70;;
3149;SDS011;32503;47.748;8.960;2022-07-23T07:06:34;12.83;;;11.63;;
3149;SDS011;32503;47.748;8.960;2022-07-23T07:09:01;12.83;;;11.83;;
3149;SDS011;32503;47.748;8.960;2022-07-23T07:11:28;12.30;;;11.23;;
3149;SDS011;32503;47.748;8.960;2022-07-23T07:13:55;11.73;;;10.90;;
3149;SDS011;32503;47.748;8.960;2022-07-23T07:16:23;13.03;;;11.77;;
3149;SDS011;32503;47.748;8.960;2022-07-23T07:18:50;12.80;;;11.80;;
3149;SDS011;32503;47.748;8.960;2022-07-23T07:21:18;11.73;;;10.83;;
3149;SDS011;32503;47.748;8.960;2022-07-23T07:23:45;12.07;;;11.27;;
3149;SDS011;32503;47.748;8.960;2022-07-23T07:26:12;13.10;;;12.10;;
3149;SDS011;32503;47.748;8.960;2022-07-23T07:28:40;11.70;;;10.90;;
3149;SDS011;32503;47.748;8.960;2022-07-23T07:31:07;12.07;;;11.17;;
3149;SDS011;32503;47.748;8.960;2022-07-23T07:33:34;13.47;;;12.37;;
3149;SDS011;32503;47.748;8.960;2022-07-23T07:36:01;14.53;;;13.33;;
3149;SDS011;32503;47.748;8.960;2022-07-23T07:38:30;12.67;;;11.47;;
3149;SDS011;32503;47.748;8.960;2022-07-23T07:40:57;14.47;;;13.20;;
3149;SDS011;32503;47.748;8.960;2022-07-23T07:43:24;12.87;;;11.57;;
3149;SDS011;32503;47.748;8.960;2022-07-23T07:45:52;13.60;;;12.43;;
3149;SDS011;32503;47.748;8.960;2022-07-23T07:48:19;12.60;;;11.60;;
3149;SDS011;32503;47.748;8.960;2022-07-23T07:50:46;12.43;;;11.43;;
3149;SDS011;32503;47.748;8.960;2022-07-23T07:53:13;12.70;;;11.60;;
3149;SDS011;32503;47.748;8.960;2022-07-23T07:55:42;12.23;;;11.23;;
3149;SDS011;32503;47.748;8.960;2022-07-23T07:58:09;12.40;;;11.50;;
3149;SDS011;32503;47.748;8.960;2022-07-23T08:00:36;13.73;;;12.53;;
3149;SDS011;32503;47.748;8.960;2022-07-23T08:03:03;12.97;;;11.50;;
3149;SDS011;32503;47.748;8.960;2022-07-23T08:05:30;13.07;;;12.07;;
3149;SDS011;32503;47.748;8.960;2022-07-23T08:07:58;12.60;;;11.60;;
3149;SDS011;32503;47.748;8.960;2022-07-23T08:10:26;13.60;;;12.40;;
3149;SDS011;32503;47.748;8.960;2022-07-23T08:12:58;11.53;;;10.53;;
3149;SDS011;32503;47.748;8.960;2022-07-23T08:15:26;11.00;;;10.27;;
3149;SDS011;32503;47.748;8.960;2022-07-23T08:17:55;11.70;;;10.77;;
3149;SDS011;32503;47.748;8.960;2022-07-23T08:20:24;10.87;;;10.17;;
3149;SDS011;32503;47.748;8.960;2022-07-23T08:22:55;11.27;;;10.37;;
3149;SDS011;32503;47.748;8.960;2022-07-23T08:25:25;12.03;;;11.13;;
3149;SDS011;32503;47.748;8.960;2022-07-23T08:27:55;11.60;;;10.80;;
3149;SDS011;32503;47.748;8.960;2022-07-23T08:30:24;11.53;;;10.70;;
3149;SDS011;32503;47.748;8.960;2022-07-23T08:32:55;10.87;;;9.97;;
3149;SDS011;32503;47.748;8.960;2022-07-23T08:35:25;11.50;;;10.73;;
3149;SDS011;32503;47.748;8.960;2022-07-23T08:37:55;12.03;;;11.07;;
3149;SDS011;32503;47.748;8.960;2022-07-23T08:40:24;10.87;;;10.17;;
3149;SDS011;32503;47.748;8.960;2022-07-23T08:42:52;11.43;;;10.60;;
3149;SDS011;32503;47.748;8.960;2022-07-23T08:45:22;10.93;;;10.10;;
3149;SDS011;32503;47.748;8.960;2022-07-23T08:47:52;11.80;;;10.90;;
3149;SDS011;32503;47.748;8.960;2022-07-23T08:50:24;11.70;;;10.90;;
3149;SDS011;32503;47.748;8.960;2022-07-23T08:52:52;11.77;;;10.97;;
3149;SDS011;32503;47.748;8.960;2022-07-23T08:55:21;12.60;;;11.33;;
3149;SDS011;32503;47.748;8.960;2022-07-23T08:57:50;12.50;;;11.60;;
3149;SDS011;32503;47.748;8.960;2022-07-23T09:00:19;12.03;;;11.03;;
3149;SDS011;32503;47.748;8.960;2022-07-23T09:02:48;11.63;;;10.83;;
3149;SDS011;32503;47.748;8.960;2022-07-23T09:05:17;12.60;;;11.73;;
3149;SDS011;32503;47.748;8.960;2022-07-23T09:08:04;10.20;;;9.50;;
3149;SDS011;32503;47.748;8.960;2022-07-23T09:10:50;11.30;;;10.50;;
3149;SDS011;32503;47.748;8.960;2022-07-23T09:13:33;11.07;;;10.23;;
3149;SDS011;32503;47.748;8.960;2022-07-23T09:16:06;11.13;;;10.33;;
3149;SDS011;32503;47.748;8.960;2022-07-23T09:18:38;11.57;;;10.80;;
3149;SDS011;32503;47.748;8.960;2022-07-23T09:23:56;12.60;;;11.60;;
3149;SDS011;32503;47.748;8.960;2022-07-23T09:26:28;11.30;;;10.50;;
3149;SDS011;32503;47.748;8.960;2022-07-23T09:29:04;12.03;;;11.13;;
3149;SDS011;32503;47.748;8.960;2022-07-23T09:31:43;11.67;;;10.93;;
3149;SDS011;32503;47.748;8.960;2022-07-23T09:34:15;11.03;;;10.40;;
3149;SDS011;32503;47.748;8.960;2022-07-23T09:36:45;12.20;;;11.30;;
3149;SDS011;32503;47.748;8.960;2022-07-23T09:39:13;11.93;;;10.77;;
3149;SDS011;32503;47.748;8.960;2022-07-23T09:41:43;11.97;;;11.13;;
3149;SDS011;32503;47.748;8.960;2022-07-23T09:44:13;10.90;;;10.20;;
3149;SDS011;32503;47.748;8.960;2022-07-23T09:46:44;11.33;;;10.70;;
3149;SDS011;32503;47.748;8.960;2022-07-23T09:49:14;12.27;;;11.37;;
3149;SDS011;32503;47.748;8.960;2022-07-23T09:51:48;12.33;;;11.40;;
3149;SDS011;32503;47.748;8.960;2022-07-23T09:54:28;11.83;;;11.03;;
3149;SDS011;32503;47.748;8.960;2022-07-23T09:57:00;12.60;;;11.60;;
3149;SDS011;32503;47.748;8.960;2022-07-23T09:59:32;12.47;;;11.57;;
3149;SDS011;32503;47.748;8.960;2022-07-23T10:02:02;11.77;;;10.97;;
3149;SDS011;32503;47.748;8.960;2022-07-23T10:04:31;11.77;;;10.97;;
3149;SDS011;32503;47.748;8.960;2022-07-23T10:07:00;12.27;;;11.37;;
3149;SDS011;32503;47.748;8.960;2022-07-23T10:09:29;11.70;;;10.90;;
3149;SDS011;32503;47.748;8.960;2022-07-23T10:11:58;11.30;;;10.57;;
3149;SDS011;32503;47.748;8.960;2022-07-23T10:14:48;11.67;;;10.87;;
3149;SDS011;32503;47.748;8.960;2022-07-23T10:17:17;13.13;;;12.13;;
3149;SDS011;32503;47.748;8.960;2022-07-23T10:19:44;14.73;;;13.43;;
3149;SDS011;32503;47.748;8.960;2022-07-23T10:22:13;12.60;;;11.80;;
3149;SDS011;32503;47.748;8.960;2022-07-23T10:24:53;11.30;;;10.50;;
3149;SDS011;32503;47.748;8.960;2022-07-23T10:27:51;12.03;;;11.03;;
3149;SDS011;32503;47.748;8.960;2022-07-23T10:30:39;12.03;;;11.00;;
3149;SDS011;32503;47.748;8.960;2022-07-23T10:33:20;11.57;;;10.77;;
3149;SDS011;32503;47.748;8.960;2022-07-23T10:36:07;12.40;;;11.50;;
3149;SDS011;32503;47.748;8.960;2022-07-23T10:38:47;13.20;;;12.23;;
3149;SDS011;32503;47.748;8.960;2022-07-23T10:41:31;11.90;;;11.10;;
3149;SDS011;32503;47.748;8.960;2022-07-23T10:44:06;13.03;;;12.13;;
3149;SDS011;32503;47.748;8.960;2022-07-23T10:46:35;12.73;;;11.90;;
3149;SDS011;32503;47.748;8.960;2022-07-23T10:49:22;13.50;;;12.50;;
3149;SDS011;32503;47.748;8.960;2022-07-23T10:54:53;12.03;;;11.27;;
3149;SDS011;32503;47.748;8.960;2022-07-23T10:57:23;13.93;;;12.77;;
3149;SDS011;32503;47.748;8.960;2022-07-23T11:02:48;14.60;;;13.60;;
3149;SDS011;32503;47.748;8.960;2022-07-23T11:05:19;12.93;;;11.93;;
3149;SDS011;32503;47.748;8.960;2022-07-23T11:10:47;13.23;;;12.17;;
3149;SDS011;32503;47.748;8.960;2022-07-23T11:13:38;13.00;;;12.00;;
3149;SDS011;32503;47.748;8.960;2022-07-23T11:16:16;13.60;;;12.30;;
3149;SDS011;32503;47.748;8.960;2022-07-23T11:24:25;13.07;;;12.27;;
3149;SDS011;32503;47.748;8.960;2022-07-23T11:27:02;14.47;;;13.40;;
3149;SDS011;32503;47.748;8.960;2022-07-23T11:29:45;14.73;;;13.53;;
3149;SDS011;32503;47.748;8.960;2022-07-23T11:35:20;14.33;;;13.23;;
3149;SDS011;32503;47.748;8.960;2022-07-23T11:37:52;14.60;;;13.30;;
3149;SDS011;32503;47.748;8.960;2022-07-23T11:40:28;12.70;;;11.70;;
3149;SDS011;32503;47.748;8.960;2022-07-23T11:42:56;13.20;;;12.30;;
3149;SDS011;32503;47.748;8.960;2022-07-23T11:45:29;27.27;;;24.80;;
3149;SDS011;32503;47.748;8.960;2022-07-23T11:48:00;14.67;;;13.67;;
3149;SDS011;32503;47.748;8.960;2022-07-23T11:50:29;14.40;;;13.30;;
3149;SDS011;32503;47.748;8.960;2022-07-23T11:52:58;13.77;;;12.77;;
3149;SDS011;32503;47.748;8.960;2022-07-23T11:55:25;14.60;;;13.50;;
3149;SDS011;32503;47.748;8.960;2022-07-23T11:57:53;15.03;;;13.90;;
3149;SDS011;32503;47.748;8.960;2022-07-23T12:00:23;13.77;;;12.60;;
3149;SDS011;32503;47.748;8.960;2022-07-23T12:02:52;13.80;;;12.80;;
3149;SDS011;32503;47.748;8.960;2022-07-23T12:05:26;13.03;;;12.10;;
3149;SDS011;32503;47.748;8.960;2022-07-23T12:07:56;13.83;;;12.57;;
3149;SDS011;32503;47.748;8.960;2022-07-23T12:10:26;13.43;;;12.43;;
3149;SDS011;32503;47.748;8.960;2022-07-23T12:12:56;15.10;;;13.77;;
3149;SDS011;32503;47.748;8.960;2022-07-23T12:15:25;13.40;;;12.40;;
3149;SDS011;32503;47.748;8.960;2022-07-23T12:17:56;13.13;;;12.23;;
3149;SDS011;32503;47.748;8.960;2022-07-23T12:20:26;13.13;;;12.23;;
3149;SDS011;32503;47.748;8.960;2022-07-23T12:23:00;12.73;;;12.03;;
3149;SDS011;32503;47.748;8.960;2022-07-23T12:25:30;12.97;;;12.03;;
3149;SDS011;32503;47.748;8.960;2022-07-23T12:28:03;14.00;;;12.87;;
3149;SDS011;32503;47.748;8.960;2022-07-23T12:30:33;14.33;;;13.13;;
3149;SDS011;32503;47.748;8.960;2022-07-23T12:33:04;15.20;;;13.83;;
3149;SDS011;32503;47.748;8.960;2022-07-23T12:35:34;14.27;;;13.07;;
3149;SDS011;32503;47.748;8.960;2022-07-23T12:38:07;14.23;;;13.23;;
3149;SDS011;32503;47.748;8.960;2022-07-23T12:40:37;13.50;;;12.60;;
3149;SDS011;32503;47.748;8.960;2022-07-23T12:43:09;15.27;;;13.83;;
3149;SDS011;32503;47.748;8.960;2022-07-23T12:45:46;15.07;;;13.97;;
3149;SDS011;32503;47.748;8.960;2022-07-23T12:48:16;15.03;;;14.03;;
3149;SDS011;32503;47.748;8.960;2022-07-23T12:50:51;13.97;;;13.07;;
3149;SDS011;32503;47.748;8.960;2022-07-23T12:53:25;13.70;;;12.57;;
3149;SDS011;32503;47.748;8.960;2022-07-23T12:55:59;14.33;;;13.23;;
3149;SDS011;32503;47.748;8.960;2022-07-23T12:58:40;13.93;;;13.00;;
3149;SDS011;32503;47.748;8.960;2022-07-23T13:01:10;14.70;;;13.50;;
3149;SDS011;32503;47.748;8.960;2022-07-23T13:03:54;13.40;;;12.47;;
3149;SDS011;32503;47.748;8.960;2022-07-23T13:06:24;15.30;;;14.13;;
3149;SDS011;32503;47.748;8.960;2022-07-23T13:08:53;14.60;;;13.50;;
3149;SDS011;32503;47.748;8.960;2022-07-23T13:11:21;13.50;;;12.40;;
3149;SDS011;32503;47.748;8.960;2022-07-23T13:13:48;14.47;;;13.23;;
3149;SDS011;32503;47.748;8.960;2022-07-23T13:16:16;13.80;;;12.90;;
3149;SDS011;32503;47.748;8.960;2022-07-23T13:18:43;14.40;;;13.20;;
3149;SDS011;32503;47.748;8.960;2022-07-23T13:21:10;14.40;;;13.30;;
3149;SDS011;32503;47.748;8.960;2022-07-23T13:23:38;15.00;;;13.90;;
3149;SDS011;32503;47.748;8.960;2022-07-23T13:26:06;14.23;;;13.23;;
3149;SDS011;32503;47.748;8.960;2022-07-23T13:28:33;15.27;;;14.20;;
3149;SDS011;32503;47.748;8.960;2022-07-23T13:31:00;13.00;;;12.20;;
3149;SDS011;32503;47.748;8.960;2022-07-23T13:33:27;14.40;;;13.33;;
3149;SDS011;32503;47.748;8.960;2022-07-23T13:35:55;15.07;;;13.90;;
3149;SDS011;32503;47.748;8.960;2022-07-23T13:38:22;15.30;;;14.30;;
3149;SDS011;32503;47.748;8.960;2022-07-23T13:40:49;14.80;;;13.60;;
3149;SDS011;32503;47.748;8.960;2022-07-23T13:43:20;14.33;;;13.33;;
3149;SDS011;32503;47.748;8.960;2022-07-23T13:45:49;15.10;;;14.07;;
3149;SDS011;32503;47.748;8.960;2022-07-23T13:48:17;15.53;;;14.37;;
3149;SDS011;32503;47.748;8.960;2022-07-23T13:50:46;14.37;;;13.23;;
3149;SDS011;32503;47.748;8.960;2022-07-23T13:53:14;14.50;;;13.50;;
3149;SDS011;32503;47.748;8.960;2022-07-23T13:55:44;15.60;;;14.40;;
3149;SDS011;32503;47.748;8.960;2022-07-23T13:58:12;15.10;;;13.90;;
3149;SDS011;32503;47.748;8.960;2022-07-23T14:00:42;15.90;;;14.60;;
3149;SDS011;32503;47.748;8.960;2022-07-23T14:03:13;13.93;;;12.90;;
3149;SDS011;32503;47.748;8.960;2022-07-23T14:05:40;15.50;;;14.13;;
3149;SDS011;32503;47.748;8.960;2022-07-23T14:08:08;14.90;;;13.90;;
3149;SDS011;32503;47.748;8.960;2022-07-23T14:10:36;13.60;;;12.60;;
3149;SDS011;32503;47.748;8.960;2022-07-23T14:13:03;15.53;;;14.53;;
3149;SDS011;32503;47.748;8.960;2022-07-23T14:15:31;15.20;;;14.10;;
3149;SDS011;32503;47.748;8.960;2022-07-23T14:17:59;16.00;;;14.93;;
3149;SDS011;32503;47.748;8.960;2022-07-23T14:20:26;16.00;;;14.57;;
3149;SDS011;32503;47.748;8.960;2022-07-23T14:22:54;15.23;;;13.80;;
3149;SDS011;32503;47.748;8.960;2022-07-23T14:25:23;15.30;;;14.30;;
3149;SDS011;32503;47.748;8.960;2022-07-23T14:27:50;15.17;;;13.87;;
3149;SDS011;32503;47.748;8.960;2022-07-23T14:30:17;16.23;;;14.97;;
3149;SDS011;32503;47.748;8.960;2022-07-23T14:32:44;14.77;;;13.70;;
3149;SDS011;32503;47.748;8.960;2022-07-23T14:35:12;14.73;;;13.63;;
3149;SDS011;32503;47.748;8.960;2022-07-23T14:37:39;13.60;;;12.63;;
3149;SDS011;32503;47.748;8.960;2022-07-23T14:40:07;14.47;;;13.47;;
3149;SDS011;32503;47.748;8.960;2022-07-23T14:42:34;14.53;;;13.63;;
3149;SDS011;32503;47.748;8.960;2022-07-23T14:45:01;14.50;;;13.50;;
3149;SDS011;32503;47.748;8.960;2022-07-23T14:47:30;14.57;;;13.60;;
3149;SDS011;32503;47.748;8.960;2022-07-23T14:49:57;14.13;;;13.20;;
3149;SDS011;32503;47.748;8.960;2022-07-23T14:52:25;13.93;;;13.03;;
3149;SDS011;32503;47.748;8.960;2022-07-23T14:54:52;13.77;;;12.77;;
3149;SDS011;32503;47.748;8.960;2022-07-23T14:57:19;14.90;;;13.83;;
3149;SDS011;32503;47.748;8.960;2022-07-23T14:59:46;14.23;;;12.90;;
3149;SDS011;32503;47.748;8.960;2022-07-23T15:02:13;14.17;;;13.30;;
3149;SDS011;32503;47.748;8.960;2022-07-23T15:04:40;13.97;;;13.00;;
3149;SDS011;32503;47.748;8.960;2022-07-23T15:07:08;14.20;;;12.77;;